Time;durP1;ratioP1;P1;durP2;ratioP2;P2;SDS_P1;SDS_P2;PMS_P1;PMS_P2;Temp;Humidity;BMP_temperature;BMP_pressure;BME280_temperature;BME280_humidity;BME280_pressure;Samples;Min_cycle;Max_cycle;Signal;HPM_P1;HPM_P2
2023/06/10 00:01:49;;;;;;;8.73;8.13;;;;;;;;;;5100318;28;20204;-61
2023/06/10 00:04:17;;;;;;;8.55;7.95;;;;;;;;;;5100603;28;20204;-61
2023/06/10 00:06:45;;;;;;;8.23;7.63;;;;;;;;;;5100538;28;20607;-61
2023/06/10 00:09:13;;;;;;;8.68;8.07;;;;;;;;;;5100720;28;20215;-61
2023/06/10 00:11:41;;;;;;;8.65;8.05;;;;;;;;;;5100800;28;20268;-61
2023/06/10 00:14:09;;;;;;;8.63;7.93;;;;;;;;;;5100462;28;20203;-61
2023/06/10 00:16:38;;;;;;;8.55;7.75;;;;;;;;;;5100678;28;20215;-61
2023/06/10 00:19:07;;;;;;;8.40;7.68;;;;;;;;;;5100605;28;20203;-61
2023/06/10 00:21:40;;;;;;;8.38;7.78;;;;;;;;;;5100708;28;20534;-62
2023/06/10 00:24:09;;;;;;;8.38;7.78;;;;;;;;;;5100347;28;20203;-62
2023/06/10 00:26:37;;;;;;;8.48;7.78;;;;;;;;;;5100310;28;20195;-62
2023/06/10 00:29:04;;;;;;;8.50;7.80;;;;;;;;;;5100260;28;20268;-61
2023/06/10 00:31:32;;;;;;;8.32;7.63;;;;;;;;;;5100508;28;20203;-61
2023/06/10 00:34:02;;;;;;;8.50;7.90;;;;;;;;;;5100267;28;20203;-61
2023/06/10 00:36:30;;;;;;;8.35;7.55;;;;;;;;;;5100354;28;20268;-61
2023/06/10 00:38:58;;;;;;;8.45;7.85;;;;;;;;;;5099883;28;20607;-61
2023/06/10 00:41:27;;;;;;;8.02;7.53;;;;;;;;;;5099848;28;20656;-61
2023/06/10 00:43:54;;;;;;;8.65;7.95;;;;;;;;;;5099925;28;20203;-61
2023/06/10 00:46:23;;;;;;;8.10;7.50;;;;;;;;;;5099351;28;20239;-61
2023/06/10 00:48:50;;;;;;;8.27;7.60;;;;;;;;;;5099941;28;20494;-61
2023/06/10 00:51:20;;;;;;;7.53;7.03;;;;;;;;;;5099824;28;20302;-61
2023/06/10 00:53:47;;;;;;;8.48;7.78;;;;;;;;;;5099827;28;20212;-62
2023/06/10 00:56:15;;;;;;;7.60;7.07;;;;;;;;;;5099331;28;20207;-61
2023/06/10 00:58:42;;;;;;;8.38;7.72;;;;;;;;;;5099329;28;20230;-61
2023/06/10 01:01:11;;;;;;;7.88;7.38;;;;;;;;;;5099989;28;20211;-61
2023/06/10 01:03:38;;;;;;;7.57;7.07;;;;;;;;;;5099727;28;20246;-61
2023/06/10 01:06:10;;;;;;;7.70;7.10;;;;;;;;;;5099615;28;20235;-62
2023/06/10 01:08:42;;;;;;;8.27;7.57;;;;;;;;;;5099045;28;20196;-61
2023/06/10 01:11:15;;;;;;;8.35;7.65;;;;;;;;;;5100033;28;20203;-61
2023/06/10 01:13:43;;;;;;;8.18;7.57;;;;;;;;;;5099315;28;20830;-61
2023/06/10 01:16:11;;;;;;;8.50;7.90;;;;;;;;;;5099115;28;20306;-61
2023/06/10 01:18:39;;;;;;;7.50;7.00;;;;;;;;;;5099600;28;20647;-61
2023/06/10 01:21:07;;;;;;;7.93;7.32;;;;;;;;;;5099473;28;20215;-61
2023/06/10 01:23:36;;;;;;;7.75;7.15;;;;;;;;;;5099316;28;20204;-61
2023/06/10 01:26:05;;;;;;;8.20;7.60;;;;;;;;;;5099407;28;20250;-61
2023/06/10 01:28:35;;;;;;;8.38;7.78;;;;;;;;;;5098360;28;20321;-61
2023/06/10 01:31:11;;;;;;;8.15;7.55;;;;;;;;;;5098217;28;20340;-61
2023/06/10 01:33:40;;;;;;;8.13;7.45;;;;;;;;;;5098879;28;20203;-61
2023/06/10 01:36:08;;;;;;;8.60;8.00;;;;;;;;;;5098511;28;20239;-61
2023/06/10 01:38:41;;;;;;;8.77;8.10;;;;;;;;;;5098975;28;20219;-61
2023/06/10 01:41:09;;;;;;;8.05;7.45;;;;;;;;;;5098901;28;20204;-61
2023/06/10 01:43:36;;;;;;;7.78;7.18;;;;;;;;;;5098485;28;20203;-61
2023/06/10 01:46:04;;;;;;;8.07;7.47;;;;;;;;;;5098893;28;20255;-62
2023/06/10 01:48:31;;;;;;;8.45;7.85;;;;;;;;;;5099050;28;20200;-62
2023/06/10 01:50:59;;;;;;;8.43;7.82;;;;;;;;;;5098351;28;20204;-62
2023/06/10 01:53:27;;;;;;;8.15;7.40;;;;;;;;;;5098750;28;20264;-62
2023/06/10 01:55:55;;;;;;;8.38;7.78;;;;;;;;;;5098773;28;20523;-62
2023/06/10 01:58:23;;;;;;;8.40;7.80;;;;;;;;;;5098834;28;20235;-62
2023/06/10 02:00:50;;;;;;;8.05;7.45;;;;;;;;;;5098929;28;20306;-62
2023/06/10 02:03:18;;;;;;;8.30;7.70;;;;;;;;;;5098803;28;20231;-62
2023/06/10 02:05:45;;;;;;;8.07;7.47;;;;;;;;;;5098491;28;20203;-62
2023/06/10 02:08:13;;;;;;;7.68;7.18;;;;;;;;;;5097629;28;20287;-62
2023/06/10 02:10:40;;;;;;;8.43;7.82;;;;;;;;;;5098808;28;20215;-62
2023/06/10 02:13:09;;;;;;;8.27;7.68;;;;;;;;;;5098485;28;20268;-62
2023/06/10 02:15:37;;;;;;;8.30;7.63;;;;;;;;;;5098255;28;20284;-62
2023/06/10 02:18:05;;;;;;;8.43;7.82;;;;;;;;;;5097705;28;20227;-62
2023/06/10 02:20:33;;;;;;;7.90;7.40;;;;;;;;;;5098475;28;20203;-62
2023/06/10 02:23:01;;;;;;;7.25;6.75;;;;;;;;;;5098189;28;20195;-62
2023/06/10 02:25:28;;;;;;;7.53;7.03;;;;;;;;;;5098400;28;20200;-62
2023/06/10 02:27:56;;;;;;;7.93;7.32;;;;;;;;;;5098125;28;20210;-62
2023/06/10 02:30:25;;;;;;;8.45;7.85;;;;;;;;;;5098337;28;20203;-62
2023/06/10 02:32:52;;;;;;;7.95;7.35;;;;;;;;;;5098007;28;20812;-62
2023/06/10 02:35:20;;;;;;;7.85;7.35;;;;;;;;;;5097691;28;20215;-62
2023/06/10 02:37:47;;;;;;;8.52;7.93;;;;;;;;;;5097784;28;20527;-62
2023/06/10 02:40:15;;;;;;;8.07;7.47;;;;;;;;;;5097882;28;20212;-62
2023/06/10 02:42:42;;;;;;;8.13;7.53;;;;;;;;;;5097955;28;20207;-62
2023/06/10 02:45:10;;;;;;;7.97;7.38;;;;;;;;;;5097589;28;20243;-62
2023/06/10 02:47:40;;;;;;;8.85;8.05;;;;;;;;;;5097606;28;20277;-62
2023/06/10 02:50:08;;;;;;;7.88;7.28;;;;;;;;;;5098076;28;20492;-62
2023/06/10 02:52:36;;;;;;;7.60;7.10;;;;;;;;;;5098255;28;20664;-62
2023/06/10 02:55:03;;;;;;;8.52;7.93;;;;;;;;;;5097482;28;20246;-62
2023/06/10 02:57:31;;;;;;;8.63;8.02;;;;;;;;;;5097643;28;20215;-62
2023/06/10 02:59:59;;;;;;;7.88;7.28;;;;;;;;;;5097947;28;20230;-62
2023/06/10 03:02:28;;;;;;;8.20;7.60;;;;;;;;;;5097578;28;20203;-61
2023/06/10 03:04:57;;;;;;;7.90;7.30;;;;;;;;;;5097865;28;20239;-61
2023/06/10 03:07:24;;;;;;;8.00;7.40;;;;;;;;;;5097716;28;20212;-61
2023/06/10 03:09:52;;;;;;;8.40;7.70;;;;;;;;;;5097928;28;20204;-61
2023/06/10 03:12:19;;;;;;;7.97;7.40;;;;;;;;;;5097159;28;20204;-61
2023/06/10 03:14:47;;;;;;;7.55;7.05;;;;;;;;;;5097525;28;20211;-61
2023/06/10 03:17:15;;;;;;;7.95;7.38;;;;;;;;;;5097588;28;20203;-61
2023/06/10 03:19:42;;;;;;;8.45;7.75;;;;;;;;;;5099430;28;20318;-61
2023/06/10 03:22:12;;;;;;;7.50;6.97;;;;;;;;;;5101738;28;20270;-62
2023/06/10 03:24:41;;;;;;;7.88;7.28;;;;;;;;;;5101848;28;20203;-61
2023/06/10 03:27:09;;;;;;;8.00;7.50;;;;;;;;;;5101556;28;20214;-61
2023/06/10 03:29:36;;;;;;;8.50;7.90;;;;;;;;;;5101343;28;20200;-61
2023/06/10 03:32:04;;;;;;;7.68;7.18;;;;;;;;;;5101249;28;20236;-61
2023/06/10 03:34:32;;;;;;;7.78;7.28;;;;;;;;;;5101356;28;20214;-61
2023/06/10 03:36:59;;;;;;;7.97;7.38;;;;;;;;;;5100828;28;20302;-61
2023/06/10 03:39:29;;;;;;;7.47;6.97;;;;;;;;;;5101045;28;20262;-61
2023/06/10 03:41:57;;;;;;;8.43;7.78;;;;;;;;;;5100878;28;20204;-61
2023/06/10 03:44:27;;;;;;;7.90;7.40;;;;;;;;;;5101302;28;20204;-61
2023/06/10 03:46:55;;;;;;;7.82;7.32;;;;;;;;;;5101190;28;20589;-61
2023/06/10 03:49:26;;;;;;;8.02;7.45;;;;;;;;;;5101325;28;20282;-61
2023/06/10 03:51:54;;;;;;;7.60;7.10;;;;;;;;;;5100784;28;20215;-62
2023/06/10 03:54:22;;;;;;;7.78;7.28;;;;;;;;;;5100477;28;20265;-61
2023/06/10 03:56:51;;;;;;;7.70;7.18;;;;;;;;;;5100901;28;20204;-61
2023/06/10 03:59:19;;;;;;;7.78;7.18;;;;;;;;;;5100891;28;20304;-61
2023/06/10 04:01:46;;;;;;;8.00;7.50;;;;;;;;;;5100668;28;20199;-62
2023/06/10 04:04:16;;;;;;;7.90;7.28;;;;;;;;;;5100750;28;20211;-61
2023/06/10 04:06:44;;;;;;;8.02;7.43;;;;;;;;;;5101022;28;20268;-61
2023/06/10 04:09:12;;;;;;;8.15;7.45;;;;;;;;;;5100319;28;20210;-61
2023/06/10 04:11:39;;;;;;;8.05;7.45;;;;;;;;;;5100377;28;20269;-61
2023/06/10 04:14:08;;;;;;;7.47;6.95;;;;;;;;;;5100334;28;20203;-61
2023/06/10 04:16:36;;;;;;;7.50;6.97;;;;;;;;;;5100432;28;20243;-61
2023/06/10 04:19:03;;;;;;;8.68;8.00;;;;;;;;;;5100319;28;20238;-61
2023/06/10 04:21:30;;;;;;;7.80;7.30;;;;;;;;;;5099996;28;20203;-61
2023/06/10 04:23:58;;;;;;;8.07;7.53;;;;;;;;;;5099756;28;20260;-61
2023/06/10 04:26:27;;;;;;;7.75;7.15;;;;;;;;;;5100356;28;20203;-61
2023/06/10 04:28:54;;;;;;;8.38;7.78;;;;;;;;;;5100746;28;20253;-61
2023/06/10 04:31:23;;;;;;;8.80;8.10;;;;;;;;;;5099575;28;20215;-61
2023/06/10 04:33:50;;;;;;;7.78;7.18;;;;;;;;;;5100273;28;20479;-61
2023/06/10 04:36:17;;;;;;;8.23;7.63;;;;;;;;;;5100596;28;20748;-61
2023/06/10 04:38:45;;;;;;;8.07;7.47;;;;;;;;;;5100527;28;20733;-61
2023/06/10 04:41:13;;;;;;;8.63;8.02;;;;;;;;;;5100177;28;20649;-61
2023/06/10 04:43:40;;;;;;;8.27;7.68;;;;;;;;;;5099915;28;20211;-61
2023/06/10 04:46:08;;;;;;;8.35;7.85;;;;;;;;;;5099720;28;20239;-61
2023/06/10 04:48:37;;;;;;;8.48;7.88;;;;;;;;;;5100089;28;20199;-61
2023/06/10 04:51:05;;;;;;;8.05;7.45;;;;;;;;;;5099982;28;20498;-61
2023/06/10 04:53:32;;;;;;;7.80;7.15;;;;;;;;;;5099720;28;20279;-61
2023/06/10 04:56:00;;;;;;;7.82;7.32;;;;;;;;;;5099729;28;20216;-61
2023/06/10 04:58:27;;;;;;;8.02;7.43;;;;;;;;;;5099390;28;20235;-61
2023/06/10 05:00:54;;;;;;;7.72;7.15;;;;;;;;;;5099852;28;20203;-61
2023/06/10 05:03:21;;;;;;;8.27;7.68;;;;;;;;;;5099493;28;20204;-61
2023/06/10 05:05:50;;;;;;;9.00;8.30;;;;;;;;;;5099540;28;20499;-61
2023/06/10 05:08:18;;;;;;;8.63;8.02;;;;;;;;;;5099440;28;20211;-61
2023/06/10 05:10:45;;;;;;;8.50;7.90;;;;;;;;;;5099177;28;20554;-61
2023/06/10 05:13:12;;;;;;;8.43;7.82;;;;;;;;;;5099760;28;20203;-62
2023/06/10 05:15:44;;;;;;;8.10;7.50;;;;;;;;;;5099171;28;20215;-61
2023/06/10 05:18:11;;;;;;;9.75;9.05;;;;;;;;;;5099341;28;20471;-62
2023/06/10 05:20:39;;;;;;;9.10;8.40;;;;;;;;;;5099473;28;20227;-62
2023/06/10 05:23:08;;;;;;;8.80;8.20;;;;;;;;;;5098724;28;20238;-62
2023/06/10 05:25:35;;;;;;;8.98;8.35;;;;;;;;;;5098947;28;20514;-61
2023/06/10 05:28:03;;;;;;;9.43;8.73;;;;;;;;;;5098788;28;20254;-61
2023/06/10 05:30:30;;;;;;;9.23;8.48;;;;;;;;;;5098920;28;20207;-61
2023/06/10 05:32:58;;;;;;;9.38;8.68;;;;;;;;;;5098954;28;20204;-61
2023/06/10 05:35:25;;;;;;;9.32;8.52;;;;;;;;;;5098546;28;20211;-61
2023/06/10 05:37:52;;;;;;;8.75;8.15;;;;;;;;;;5098715;28;20238;-61
2023/06/10 05:40:21;;;;;;;9.15;8.55;;;;;;;;;;5098200;28;20230;-61
2023/06/10 05:42:49;;;;;;;10.32;8.63;;;;;;;;;;5098924;28;20215;-62
2023/06/10 05:45:16;;;;;;;9.10;8.50;;;;;;;;;;5098515;28;20236;-62
2023/06/10 05:47:44;;;;;;;9.10;8.50;;;;;;;;;;5098629;28;20239;-62
2023/06/10 05:50:11;;;;;;;8.98;8.38;;;;;;;;;;5098458;28;20203;-62
2023/06/10 05:52:40;;;;;;;8.70;8.10;;;;;;;;;;5097854;28;20203;-61
2023/06/10 05:55:07;;;;;;;8.50;7.90;;;;;;;;;;5098236;28;20250;-61
2023/06/10 05:57:36;;;;;;;9.35;8.70;;;;;;;;;;5098032;28;20204;-62
2023/06/10 06:00:04;;;;;;;8.98;8.27;;;;;;;;;;5098406;28;20224;-62
2023/06/10 06:02:31;;;;;;;8.60;8.00;;;;;;;;;;5098108;28;20200;-62
2023/06/10 06:04:58;;;;;;;9.40;8.60;;;;;;;;;;5098073;28;20234;-63
2023/06/10 06:07:26;;;;;;;9.30;8.60;;;;;;;;;;5098258;28;20235;-62
2023/06/10 06:09:53;;;;;;;9.10;8.40;;;;;;;;;;5097942;28;20200;-62
2023/06/10 06:12:20;;;;;;;8.75;8.15;;;;;;;;;;5098100;28;20204;-62
2023/06/10 06:14:50;;;;;;;9.85;9.15;;;;;;;;;;5097640;28;20204;-62
2023/06/10 06:17:17;;;;;;;9.25;8.50;;;;;;;;;;5098089;28;20253;-62
2023/06/10 06:19:47;;;;;;;10.02;9.32;;;;;;;;;;5097723;28;20233;-62
2023/06/10 06:22:14;;;;;;;9.85;8.95;;;;;;;;;;5097631;28;20241;-62
2023/06/10 06:24:41;;;;;;;9.73;8.82;;;;;;;;;;5097533;28;20605;-62
2023/06/10 06:27:08;;;;;;;9.25;8.52;;;;;;;;;;5097766;28;20532;-62
2023/06/10 06:29:36;;;;;;;9.43;8.68;;;;;;;;;;5097486;28;20208;-62
2023/06/10 06:32:05;;;;;;;9.63;8.82;;;;;;;;;;5097856;28;20474;-62
2023/06/10 06:34:33;;;;;;;9.55;8.85;;;;;;;;;;5097394;28;20211;-62
2023/06/10 06:37:00;;;;;;;9.18;8.40;;;;;;;;;;5097572;28;20203;-62
2023/06/10 06:39:27;;;;;;;9.48;8.77;;;;;;;;;;5097766;28;20227;-62
2023/06/10 06:41:55;;;;;;;9.55;8.75;;;;;;;;;;5097222;28;20215;-62
2023/06/10 06:44:22;;;;;;;9.48;8.77;;;;;;;;;;5096933;28;20208;-62
2023/06/10 06:46:50;;;;;;;10.45;9.65;;;;;;;;;;5096697;28;20227;-62
2023/06/10 06:49:18;;;;;;;9.27;8.57;;;;;;;;;;5097281;28;20625;-62
2023/06/10 06:51:46;;;;;;;9.85;9.05;;;;;;;;;;5096943;28;20571;-62
2023/06/10 06:54:13;;;;;;;9.18;8.48;;;;;;;;;;5096726;28;20225;-62
2023/06/10 06:56:41;;;;;;;9.02;8.32;;;;;;;;;;5097048;28;20215;-62
2023/06/10 06:59:08;;;;;;;9.13;8.43;;;;;;;;;;5096850;28;20524;-62
2023/06/10 07:01:35;;;;;;;8.93;8.23;;;;;;;;;;5096993;28;20210;-62
2023/06/10 07:04:03;;;;;;;9.15;8.45;;;;;;;;;;5096931;28;20214;-62
2023/06/10 07:06:31;;;;;;;9.80;9.10;;;;;;;;;;5096216;28;20215;-62
2023/06/10 07:08:58;;;;;;;9.02;8.30;;;;;;;;;;5096330;28;20207;-62
2023/06/10 07:11:26;;;;;;;9.15;8.55;;;;;;;;;;5096710;28;20195;-62
2023/06/10 07:13:53;;;;;;;9.38;8.68;;;;;;;;;;5096411;28;20583;-62
2023/06/10 07:16:21;;;;;;;9.73;9.02;;;;;;;;;;5096260;28;20548;-62
2023/06/10 07:18:48;;;;;;;10.00;9.20;;;;;;;;;;5096025;28;20215;-62
2023/06/10 07:21:15;;;;;;;9.10;8.40;;;;;;;;;;5096096;28;20745;-62
2023/06/10 07:23:45;;;;;;;8.93;8.23;;;;;;;;;;5096378;28;20211;-62
2023/06/10 07:26:13;;;;;;;9.50;8.63;;;;;;;;;;5096213;28;20223;-62
2023/06/10 07:28:40;;;;;;;8.95;8.30;;;;;;;;;;5096258;28;20603;-62
2023/06/10 07:31:08;;;;;;;8.93;8.18;;;;;;;;;;5096053;28;20200;-62
2023/06/10 07:33:36;;;;;;;9.57;8.77;;;;;;;;;;5095943;28;20207;-62
2023/06/10 07:36:04;;;;;;;10.23;9.13;;;;;;;;;;5096075;28;20556;-62
2023/06/10 07:38:31;;;;;;;9.13;8.32;;;;;;;;;;5096423;28;20278;-62
2023/06/10 07:41:00;;;;;;;9.60;8.80;;;;;;;;;;5096172;28;20237;-62
2023/06/10 07:43:27;;;;;;;9.50;8.70;;;;;;;;;;5095905;28;20196;-62
2023/06/10 07:45:55;;;;;;;9.50;8.68;;;;;;;;;;5095867;28;20239;-62
2023/06/10 07:48:22;;;;;;;9.38;8.65;;;;;;;;;;5096250;28;20480;-62
2023/06/10 07:50:49;;;;;;;8.82;8.15;;;;;;;;;;5095993;28;20200;-62
2023/06/10 07:53:17;;;;;;;8.43;7.82;;;;;;;;;;5096325;28;20210;-62
2023/06/10 07:55:44;;;;;;;8.50;7.88;;;;;;;;;;5095812;28;20623;-62
2023/06/10 07:58:13;;;;;;;9.32;8.52;;;;;;;;;;5096244;28;20196;-63
2023/06/10 08:00:40;;;;;;;9.98;9.18;;;;;;;;;;5096128;28;20769;-62
2023/06/10 08:03:09;;;;;;;10.15;9.35;;;;;;;;;;5095629;28;20210;-62
2023/06/10 08:05:36;;;;;;;9.63;8.88;;;;;;;;;;5095705;28;20246;-62
2023/06/10 08:08:04;;;;;;;9.52;8.82;;;;;;;;;;5099586;28;20787;-62
2023/06/10 08:10:31;;;;;;;9.55;8.85;;;;;;;;;;5099794;28;20207;-62
2023/06/10 08:12:58;;;;;;;9.27;8.48;;;;;;;;;;5099777;28;20211;-62
2023/06/10 08:15:27;;;;;;;9.73;8.82;;;;;;;;;;5099767;28;20223;-62
2023/06/10 08:17:56;;;;;;;9.30;8.60;;;;;;;;;;5099498;28;20212;-62
2023/06/10 08:20:24;;;;;;;9.05;8.35;;;;;;;;;;5098579;28;20303;-62
2023/06/10 08:22:51;;;;;;;8.75;8.07;;;;;;;;;;5098953;28;20208;-62
2023/06/10 08:25:18;;;;;;;8.95;8.23;;;;;;;;;;5099379;28;20230;-62
2023/06/10 08:27:45;;;;;;;9.57;8.88;;;;;;;;;;5098713;28;20195;-62
2023/06/10 08:30:13;;;;;;;8.88;8.18;;;;;;;;;;5098670;28;20629;-62
2023/06/10 08:32:42;;;;;;;9.30;8.50;;;;;;;;;;5099034;28;20199;-62
2023/06/10 08:35:10;;;;;;;9.13;8.43;;;;;;;;;;5099328;28;20204;-62
2023/06/10 08:37:37;;;;;;;8.52;7.93;;;;;;;;;;5098557;28;20501;-62
2023/06/10 08:40:05;;;;;;;8.70;8.10;;;;;;;;;;5098417;28;20251;-62
2023/06/10 08:42:36;;;;;;;8.70;8.10;;;;;;;;;;5098138;28;20208;-62
2023/06/10 08:45:05;;;;;;;8.15;7.55;;;;;;;;;;5098760;28;20401;-62
2023/06/10 08:47:35;;;;;;;8.75;8.13;;;;;;;;;;5098855;28;20204;-62
2023/06/10 08:50:04;;;;;;;9.02;8.23;;;;;;;;;;5098520;28;20495;-62
2023/06/10 08:52:36;;;;;;;8.75;8.05;;;;;;;;;;5110053;28;20516;-62
2023/06/10 08:55:05;;;;;;;8.50;7.90;;;;;;;;;;5118691;28;20203;-62
2023/06/10 08:57:32;;;;;;;8.65;7.95;;;;;;;;;;5118530;28;20242;-62
2023/06/10 09:00:00;;;;;;;8.98;8.38;;;;;;;;;;5118892;28;20219;-61
2023/06/10 09:02:28;;;;;;;9.23;8.50;;;;;;;;;;5118927;28;20743;-61
2023/06/10 09:04:57;;;;;;;9.07;8.32;;;;;;;;;;5117551;28;20214;-62
2023/06/10 09:07:26;;;;;;;9.20;8.50;;;;;;;;;;5118035;28;20630;-62
2023/06/10 09:09:55;;;;;;;9.45;8.75;;;;;;;;;;5118110;28;20533;-62
2023/06/10 09:12:22;;;;;;;10.05;9.27;;;;;;;;;;5118385;28;20203;-62
2023/06/10 09:14:50;;;;;;;9.48;8.77;;;;;;;;;;5117646;28;20202;-62
2023/06/10 09:17:18;;;;;;;9.57;8.77;;;;;;;;;;5117505;28;20566;-62
2023/06/10 09:19:46;;;;;;;9.80;9.00;;;;;;;;;;5118518;28;20630;-62
2023/06/10 09:22:13;;;;;;;10.85;9.95;;;;;;;;;;5118633;28;20218;-62
2023/06/10 09:24:42;;;;;;;9.38;8.68;;;;;;;;;;5117716;28;20203;-62
2023/06/10 09:27:10;;;;;;;8.57;7.90;;;;;;;;;;5118328;28;20256;-62
2023/06/10 09:29:47;;;;;;;9.00;8.20;;;;;;;;;;5117334;28;20211;-62
2023/06/10 09:32:14;;;;;;;10.00;9.25;;;;;;;;;;5117659;28;20268;-62
2023/06/10 09:34:42;;;;;;;9.30;8.60;;;;;;;;;;5117695;28;20207;-62
2023/06/10 09:37:12;;;;;;;9.60;8.90;;;;;;;;;;5117409;28;20529;-62
2023/06/10 09:39:39;;;;;;;9.30;8.45;;;;;;;;;;5118108;28;20252;-63
2023/06/10 09:42:12;;;;;;;10.02;9.23;;;;;;;;;;5116841;28;20229;-62
2023/06/10 09:44:41;;;;;;;9.80;9.10;;;;;;;;;;5117021;28;20203;-62
2023/06/10 09:47:09;;;;;;;9.10;8.35;;;;;;;;;;5116955;28;20237;-62
2023/06/10 09:49:39;;;;;;;9.30;8.60;;;;;;;;;;5116944;28;20199;-63
2023/06/10 09:52:07;;;;;;;9.73;8.93;;;;;;;;;;5117446;28;20202;-62
2023/06/10 09:54:34;;;;;;;9.40;8.70;;;;;;;;;;5117945;28;20203;-62
2023/06/10 09:57:08;;;;;;;9.05;8.35;;;;;;;;;;5117571;28;20511;-62
2023/06/10 09:59:35;;;;;;;9.90;9.10;;;;;;;;;;5117536;28;20213;-63
2023/06/10 10:02:05;;;;;;;9.82;9.13;;;;;;;;;;5115710;28;20217;-62
2023/06/10 10:04:32;;;;;;;10.60;9.70;;;;;;;;;;5116806;28;20202;-62
2023/06/10 10:06:59;;;;;;;9.57;8.88;;;;;;;;;;5116586;28;20198;-62
2023/06/10 10:09:27;;;;;;;10.07;9.27;;;;;;;;;;5116286;28;20210;-62
2023/06/10 10:11:56;;;;;;;10.70;9.90;;;;;;;;;;5116778;28;20536;-62
2023/06/10 10:14:24;;;;;;;10.40;9.55;;;;;;;;;;5116411;28;20211;-62
2023/06/10 10:16:54;;;;;;;9.82;8.90;;;;;;;;;;5115805;28;20199;-62
2023/06/10 10:19:25;;;;;;;10.25;9.45;;;;;;;;;;5116774;28;20508;-62
2023/06/10 10:21:54;;;;;;;9.98;9.27;;;;;;;;;;5116333;28;20234;-62
2023/06/10 10:24:23;;;;;;;10.82;10.02;;;;;;;;;;5116669;28;20745;-62
2023/06/10 10:26:51;;;;;;;10.82;10.02;;;;;;;;;;5116648;28;20492;-62
2023/06/10 10:29:24;;;;;;;10.90;10.07;;;;;;;;;;5116256;28;20503;-62
2023/06/10 10:31:53;;;;;;;10.65;9.95;;;;;;;;;;5116779;28;20280;-62
2023/06/10 10:34:23;;;;;;;10.40;9.48;;;;;;;;;;5116701;28;20203;-62
2023/06/10 10:36:52;;;;;;;10.20;9.40;;;;;;;;;;5115897;28;20214;-62
2023/06/10 10:39:20;;;;;;;10.43;9.73;;;;;;;;;;5116283;28;20203;-62
2023/06/10 10:41:48;;;;;;;10.45;9.65;;;;;;;;;;5115777;28;20230;-62
2023/06/10 10:44:15;;;;;;;10.27;9.48;;;;;;;;;;5116526;28;20195;-62
2023/06/10 10:46:46;;;;;;;10.77;10.07;;;;;;;;;;5115132;28;20235;-62
2023/06/10 10:49:15;;;;;;;10.70;9.90;;;;;;;;;;5116248;28;20221;-62
2023/06/10 10:51:58;;;;;;;10.00;9.35;;;;;;;;;;5115918;28;20207;-62
2023/06/10 10:54:31;;;;;;;11.32;10.43;;;;;;;;;;5115437;28;20221;-62
2023/06/10 10:57:18;;;;;;;11.60;10.73;;;;;;;;;;5115945;28;20284;-62
2023/06/10 10:59:46;;;;;;;10.68;9.88;;;;;;;;;;5115063;28;20202;-62
2023/06/10 11:02:17;;;;;;;11.13;10.32;;;;;;;;;;5115313;28;20258;-62
2023/06/10 11:04:46;;;;;;;11.73;10.82;;;;;;;;;;5115447;28;20268;-62
2023/06/10 11:07:16;;;;;;;10.20;9.50;;;;;;;;;;5115336;28;20206;-61
2023/06/10 11:09:58;;;;;;;10.98;10.20;;;;;;;;;;5115981;28;20229;-62
2023/06/10 11:12:25;;;;;;;11.73;10.82;;;;;;;;;;5116544;28;20230;-62
2023/06/10 11:14:56;;;;;;;11.82;11.02;;;;;;;;;;5115617;28;20583;-62
2023/06/10 11:17:23;;;;;;;12.48;11.43;;;;;;;;;;5116516;28;20272;-62
2023/06/10 11:19:51;;;;;;;11.70;10.80;;;;;;;;;;5115397;28;20214;-62
2023/06/10 11:22:20;;;;;;;10.75;9.85;;;;;;;;;;5115231;28;20777;-62
2023/06/10 11:24:51;;;;;;;11.52;10.52;;;;;;;;;;5115203;28;20729;-62
2023/06/10 11:27:19;;;;;;;11.05;10.18;;;;;;;;;;5116082;28;20215;-62
2023/06/10 11:30:13;;;;;;;10.82;9.82;;;;;;;;;;5116186;28;20575;-62
2023/06/10 11:32:43;;;;;;;10.45;9.65;;;;;;;;;;5115493;28;20199;-62
2023/06/10 11:35:10;;;;;;;9.85;9.05;;;;;;;;;;5115199;28;20203;-62
2023/06/10 11:37:39;;;;;;;10.55;9.70;;;;;;;;;;5113879;28;20203;-62
2023/06/10 11:40:08;;;;;;;10.35;9.45;;;;;;;;;;5116572;28;20194;-62
2023/06/10 11:42:39;;;;;;;9.13;8.52;;;;;;;;;;5118425;28;20230;-62
2023/06/10 11:45:08;;;;;;;8.93;8.32;;;;;;;;;;5119248;28;20630;-62
2023/06/10 11:47:36;;;;;;;9.30;8.60;;;;;;;;;;5119675;28;20318;-62
2023/06/10 11:50:03;;;;;;;9.43;8.73;;;;;;;;;;5119069;28;20214;-62
2023/06/10 11:52:32;;;;;;;9.50;8.68;;;;;;;;;;5119067;28;20718;-61
2023/06/10 11:55:00;;;;;;;9.40;8.80;;;;;;;;;;5119547;28;20206;-61
2023/06/10 11:57:28;;;;;;;8.60;8.00;;;;;;;;;;5119645;28;20202;-61
2023/06/10 11:59:55;;;;;;;8.90;8.23;;;;;;;;;;5119206;28;20582;-62
2023/06/10 12:02:22;;;;;;;9.18;8.55;;;;;;;;;;5118619;28;20226;-61
2023/06/10 12:04:50;;;;;;;9.10;8.45;;;;;;;;;;5118730;28;20693;-63
2023/06/10 12:07:22;;;;;;;9.15;8.45;;;;;;;;;;5118862;28;20229;-63
2023/06/10 12:10:00;;;;;;;9.15;8.40;;;;;;;;;;5119074;28;20211;-62
2023/06/10 12:12:29;;;;;;;9.30;8.60;;;;;;;;;;5119111;28;20198;-62
2023/06/10 12:14:57;;;;;;;9.00;8.40;;;;;;;;;;5118497;28;20709;-62
2023/06/10 12:17:25;;;;;;;8.90;8.20;;;;;;;;;;5118515;28;20206;-62
2023/06/10 12:19:52;;;;;;;8.95;8.35;;;;;;;;;;5118074;28;20199;-62
2023/06/10 12:22:20;;;;;;;9.20;8.50;;;;;;;;;;5118476;28;20298;-61
2023/06/10 12:24:48;;;;;;;9.27;8.55;;;;;;;;;;5118737;28;20207;-62
2023/06/10 12:27:15;;;;;;;8.80;8.10;;;;;;;;;;5118496;28;20559;-62
2023/06/10 12:29:55;;;;;;;9.07;8.30;;;;;;;;;;5118650;28;20202;-61
2023/06/10 12:32:25;;;;;;;9.88;9.07;;;;;;;;;;5118137;28;20199;-62
2023/06/10 12:35:04;;;;;;;9.23;8.43;;;;;;;;;;5118690;28;20210;-62
2023/06/10 12:37:33;;;;;;;9.50;8.60;;;;;;;;;;5116709;28;20256;-62
2023/06/10 12:40:02;;;;;;;8.63;8.02;;;;;;;;;;5118353;28;20233;-62
2023/06/10 12:42:30;;;;;;;8.90;8.30;;;;;;;;;;5117568;28;20234;-62
2023/06/10 12:45:01;;;;;;;8.48;7.88;;;;;;;;;;5117626;28;20206;-62
2023/06/10 12:47:32;;;;;;;8.57;7.88;;;;;;;;;;5117691;28;20205;-62
2023/06/10 12:50:00;;;;;;;8.90;8.20;;;;;;;;;;5117762;28;20217;-61
2023/06/10 12:52:27;;;;;;;9.13;8.43;;;;;;;;;;5117884;28;20195;-62
2023/06/10 12:54:55;;;;;;;8.25;7.65;;;;;;;;;;5117633;28;20207;-62
2023/06/10 12:57:22;;;;;;;14.35;8.10;;;;;;;;;;5117371;28;20992;-62
2023/06/10 12:59:52;;;;;;;8.65;7.85;;;;;;;;;;5117498;28;20215;-62
2023/06/10 13:02:23;;;;;;;8.43;7.45;;;;;;;;;;5117993;28;20313;-61
2023/06/10 13:04:51;;;;;;;7.97;7.25;;;;;;;;;;5117481;28;20209;-61
2023/06/10 13:07:18;;;;;;;8.45;7.75;;;;;;;;;;5116410;28;20214;-62
2023/06/10 13:09:48;;;;;;;9.30;8.60;;;;;;;;;;5117548;28;20203;-62
2023/06/10 13:12:17;;;;;;;8.85;8.25;;;;;;;;;;5118584;28;20496;-63
2023/06/10 13:14:44;;;;;;;8.55;7.72;;;;;;;;;;5117606;28;20303;-62
2023/06/10 13:17:12;;;;;;;8.73;8.02;;;;;;;;;;5116931;28;20210;-62
2023/06/10 13:19:40;;;;;;;8.63;7.82;;;;;;;;;;5117182;28;20211;-62
2023/06/10 13:22:08;;;;;;;8.48;7.72;;;;;;;;;;5118093;28;20254;-62
2023/06/10 13:24:36;;;;;;;7.80;7.30;;;;;;;;;;5117266;28;20203;-62
2023/06/10 13:27:03;;;;;;;8.02;7.53;;;;;;;;;;5116639;27;20206;-62
2023/06/10 13:29:30;;;;;;;8.70;8.00;;;;;;;;;;5117391;28;20507;-62
2023/06/10 13:31:58;;;;;;;8.52;7.93;;;;;;;;;;5117454;28;20199;-62
2023/06/10 13:34:25;;;;;;;8.68;8.07;;;;;;;;;;5117576;28;20203;-62
2023/06/10 13:36:54;;;;;;;8.70;8.10;;;;;;;;;;5117944;28;20210;-62
2023/06/10 13:39:21;;;;;;;8.35;7.75;;;;;;;;;;5117151;28;20206;-62
2023/06/10 13:41:49;;;;;;;9.05;8.35;;;;;;;;;;5117944;28;20223;-62
2023/06/10 13:44:16;;;;;;;9.18;8.48;;;;;;;;;;5117639;28;20210;-62
2023/06/10 13:46:43;;;;;;;9.43;8.75;;;;;;;;;;5115939;28;20238;-62
2023/06/10 13:49:11;;;;;;;9.38;8.60;;;;;;;;;;5116535;28;20199;-62
2023/06/10 13:51:38;;;;;;;9.23;8.45;;;;;;;;;;5116606;28;20226;-62
2023/06/10 13:54:07;;;;;;;9.18;8.50;;;;;;;;;;5116716;28;20206;-62
2023/06/10 13:56:37;;;;;;;8.98;8.27;;;;;;;;;;5116468;28;20195;-62
2023/06/10 13:59:05;;;;;;;9.57;8.77;;;;;;;;;;5116536;28;20230;-62
2023/06/10 14:01:32;;;;;;;8.88;8.23;;;;;;;;;;5115294;28;20354;-62
2023/06/10 14:04:00;;;;;;;8.90;8.30;;;;;;;;;;5115286;28;20791;-62
2023/06/10 14:06:27;;;;;;;9.55;8.75;;;;;;;;;;5115098;27;20347;-62
2023/06/10 14:08:55;;;;;;;8.48;7.78;;;;;;;;;;5116188;28;20209;-62
2023/06/10 14:11:24;;;;;;;9.07;8.20;;;;;;;;;;5116696;28;20202;-62
2023/06/10 14:13:51;;;;;;;8.70;8.00;;;;;;;;;;5116448;28;20230;-62
2023/06/10 14:16:19;;;;;;;9.05;8.35;;;;;;;;;;5115320;28;20203;-61
2023/06/10 14:18:47;;;;;;;9.43;8.63;;;;;;;;;;5115475;28;20206;-62
2023/06/10 14:21:14;;;;;;;8.35;7.75;;;;;;;;;;5115862;28;20234;-62
2023/06/10 14:23:43;;;;;;;8.35;7.60;;;;;;;;;;5116433;28;20232;-62
2023/06/10 14:26:10;;;;;;;8.55;7.88;;;;;;;;;;5116415;28;20202;-62
2023/06/10 14:28:39;;;;;;;8.82;8.02;;;;;;;;;;5116064;28;20203;-62
2023/06/10 14:31:07;;;;;;;8.10;7.50;;;;;;;;;;5115454;28;20203;-62
2023/06/10 14:33:35;;;;;;;8.55;7.75;;;;;;;;;;5114430;28;20676;-62
2023/06/10 14:36:02;;;;;;;8.65;7.85;;;;;;;;;;5115654;28;20203;-62
2023/06/10 14:38:29;;;;;;;8.07;7.47;;;;;;;;;;5115290;28;20214;-62
2023/06/10 14:40:57;;;;;;;8.43;7.72;;;;;;;;;;5114623;28;20234;-62
2023/06/10 14:43:24;;;;;;;8.30;7.60;;;;;;;;;;5115541;28;20227;-62
2023/06/10 14:45:55;;;;;;;8.27;7.68;;;;;;;;;;5115770;28;20242;-62
2023/06/10 14:48:22;;;;;;;8.50;7.80;;;;;;;;;;5116696;28;20222;-63